sensor_id;sensor_type;location;lat;lon;timestamp;P1;durP1;ratioP1;P2;durP2;ratioP2
66593;SDS011;53450;42.584;23.366;2023-07-31T00:01:22;5.75;;;4.18;;
66593;SDS011;53450;42.584;23.366;2023-07-31T00:03:47;4.82;;;4.30;;
66593;SDS011;53450;42.584;23.366;2023-07-31T00:06:13;7.32;;;4.50;;
66593;SDS011;53450;42.584;23.366;2023-07-31T00:08:38;8.35;;;5.22;;
66593;SDS011;53450;42.584;23.366;2023-07-31T00:11:04;5.78;;;4.70;;
66593;SDS011;53450;42.584;23.366;2023-07-31T00:13:29;5.00;;;4.50;;
66593;SDS011;53450;42.584;23.366;2023-07-31T00:15:55;5.95;;;4.95;;
66593;SDS011;53450;42.584;23.366;2023-07-31T00:18:21;6.78;;;4.57;;
66593;SDS011;53450;42.584;23.366;2023-07-31T00:20:46;5.90;;;4.95;;
66593;SDS011;53450;42.584;23.366;2023-07-31T00:23:37;5.20;;;4.25;;
66593;SDS011;53450;42.584;23.366;2023-07-31T00:26:02;6.05;;;4.70;;
66593;SDS011;53450;42.584;23.366;2023-07-31T00:28:28;5.20;;;4.80;;
66593;SDS011;53450;42.584;23.366;2023-07-31T00:30:54;15.23;;;5.22;;
66593;SDS011;53450;42.584;23.366;2023-07-31T00:33:19;6.32;;;5.22;;
66593;SDS011;53450;42.584;23.366;2023-07-31T00:35:45;7.65;;;5.40;;
66593;SDS011;53450;42.584;23.366;2023-07-31T00:38:10;6.22;;;5.32;;
66593;SDS011;53450;42.584;23.366;2023-07-31T00:40:36;5.65;;;5.07;;
66593;SDS011;53450;42.584;23.366;2023-07-31T00:43:03;7.28;;;5.43;;
66593;SDS011;53450;42.584;23.366;2023-07-31T00:45:29;7.82;;;5.00;;
66593;SDS011;53450;42.584;23.366;2023-07-31T00:47:55;11.63;;;5.63;;
66593;SDS011;53450;42.584;23.366;2023-07-31T00:50:24;7.13;;;6.15;;
66593;SDS011;53450;42.584;23.366;2023-07-31T00:52:50;6.50;;;5.78;;
66593;SDS011;53450;42.584;23.366;2023-07-31T00:55:17;11.55;;;5.38;;
66593;SDS011;53450;42.584;23.366;2023-07-31T00:57:43;6.85;;;5.20;;
66593;SDS011;53450;42.584;23.366;2023-07-31T01:00:11;6.18;;;5.57;;
66593;SDS011;53450;42.584;23.366;2023-07-31T01:02:37;7.53;;;5.00;;
66593;SDS011;53450;42.584;23.366;2023-07-31T01:05:03;7.72;;;5.72;;
66593;SDS011;53450;42.584;23.366;2023-07-31T01:10:34;6.68;;;5.13;;
66593;SDS011;53450;42.584;23.366;2023-07-31T01:13:32;8.02;;;5.25;;
66593;SDS011;53450;42.584;23.366;2023-07-31T01:16:00;7.30;;;5.38;;
66593;SDS011;53450;42.584;23.366;2023-07-31T01:18:26;7.28;;;5.22;;
66593;SDS011;53450;42.584;23.366;2023-07-31T01:20:54;7.35;;;5.03;;
66593;SDS011;53450;42.584;23.366;2023-07-31T01:23:45;6.93;;;5.40;;
66593;SDS011;53450;42.584;23.366;2023-07-31T01:26:26;8.30;;;4.97;;
66593;SDS011;53450;42.584;23.366;2023-07-31T01:28:56;8.13;;;5.38;;
66593;SDS011;53450;42.584;23.366;2023-07-31T01:31:24;6.18;;;5.00;;
66593;SDS011;53450;42.584;23.366;2023-07-31T01:33:52;8.50;;;5.20;;
66593;SDS011;53450;42.584;23.366;2023-07-31T01:36:19;5.78;;;5.20;;
66593;SDS011;53450;42.584;23.366;2023-07-31T01:38:45;5.82;;;5.15;;
66593;SDS011;53450;42.584;23.366;2023-07-31T01:41:11;6.97;;;5.50;;
66593;SDS011;53450;42.584;23.366;2023-07-31T01:43:36;6.65;;;5.72;;
66593;SDS011;53450;42.584;23.366;2023-07-31T01:46:04;7.07;;;5.45;;
66593;SDS011;53450;42.584;23.366;2023-07-31T01:48:29;8.90;;;5.40;;
66593;SDS011;53450;42.584;23.366;2023-07-31T01:51:00;13.57;;;5.20;;
66593;SDS011;53450;42.584;23.366;2023-07-31T01:53:31;8.98;;;5.28;;
66593;SDS011;53450;42.584;23.366;2023-07-31T01:55:57;7.60;;;4.85;;
66593;SDS011;53450;42.584;23.366;2023-07-31T01:58:22;5.70;;;5.05;;
66593;SDS011;53450;42.584;23.366;2023-07-31T02:00:48;8.25;;;5.60;;
66593;SDS011;53450;42.584;23.366;2023-07-31T02:03:14;9.10;;;5.20;;
66593;SDS011;53450;42.584;23.366;2023-07-31T02:05:46;5.82;;;5.07;;
66593;SDS011;53450;42.584;23.366;2023-07-31T02:08:15;5.65;;;5.13;;
66593;SDS011;53450;42.584;23.366;2023-07-31T02:10:42;6.00;;;5.38;;
66593;SDS011;53450;42.584;23.366;2023-07-31T02:13:07;7.10;;;4.55;;
66593;SDS011;53450;42.584;23.366;2023-07-31T02:15:33;6.88;;;4.78;;
66593;SDS011;53450;42.584;23.366;2023-07-31T02:17:59;5.00;;;4.50;;
66593;SDS011;53450;42.584;23.366;2023-07-31T02:20:25;5.30;;;4.82;;
66593;SDS011;53450;42.584;23.366;2023-07-31T02:22:51;9.48;;;5.70;;
66593;SDS011;53450;42.584;23.366;2023-07-31T02:25:16;5.93;;;4.57;;
66593;SDS011;53450;42.584;23.366;2023-07-31T02:27:44;5.20;;;4.25;;
66593;SDS011;53450;42.584;23.366;2023-07-31T02:30:10;4.50;;;4.10;;
66593;SDS011;53450;42.584;23.366;2023-07-31T02:32:36;6.78;;;4.28;;
66593;SDS011;53450;42.584;23.366;2023-07-31T02:35:01;6.00;;;5.03;;
66593;SDS011;53450;42.584;23.366;2023-07-31T02:37:27;7.63;;;4.82;;
66593;SDS011;53450;42.584;23.366;2023-07-31T02:39:54;5.20;;;4.70;;
66593;SDS011;53450;42.584;23.366;2023-07-31T02:42:20;5.28;;;4.78;;
66593;SDS011;53450;42.584;23.366;2023-07-31T02:44:45;5.18;;;4.68;;
66593;SDS011;53450;42.584;23.366;2023-07-31T02:47:11;5.38;;;4.90;;
66593;SDS011;53450;42.584;23.366;2023-07-31T02:49:36;8.13;;;5.20;;
66593;SDS011;53450;42.584;23.366;2023-07-31T02:52:02;6.07;;;5.45;;
66593;SDS011;53450;42.584;23.366;2023-07-31T02:54:28;6.25;;;5.70;;
66593;SDS011;53450;42.584;23.366;2023-07-31T02:56:53;5.78;;;5.18;;
66593;SDS011;53450;42.584;23.366;2023-07-31T02:59:20;6.68;;;5.50;;
66593;SDS011;53450;42.584;23.366;2023-07-31T03:01:46;11.85;;;5.20;;
66593;SDS011;53450;42.584;23.366;2023-07-31T03:04:12;6.60;;;5.93;;
66593;SDS011;53450;42.584;23.366;2023-07-31T03:06:37;6.22;;;5.72;;
66593;SDS011;53450;42.584;23.366;2023-07-31T03:09:03;6.65;;;6.05;;
66593;SDS011;53450;42.584;23.366;2023-07-31T03:11:53;9.85;;;6.70;;
66593;SDS011;53450;42.584;23.366;2023-07-31T03:14:44;10.30;;;7.65;;
66593;SDS011;53450;42.584;23.366;2023-07-31T03:17:10;10.27;;;9.18;;
66593;SDS011;53450;42.584;23.366;2023-07-31T03:19:35;25.02;;;20.23;;
66593;SDS011;53450;42.584;23.366;2023-07-31T03:22:01;26.92;;;22.65;;
66593;SDS011;53450;42.584;23.366;2023-07-31T03:24:28;29.77;;;23.95;;
66593;SDS011;53450;42.584;23.366;2023-07-31T03:27:19;30.65;;;24.23;;
66593;SDS011;53450;42.584;23.366;2023-07-31T03:30:10;28.15;;;21.98;;
66593;SDS011;53450;42.584;23.366;2023-07-31T03:32:36;28.20;;;21.83;;
66593;SDS011;53450;42.584;23.366;2023-07-31T03:35:02;30.70;;;23.45;;
66593;SDS011;53450;42.584;23.366;2023-07-31T03:37:28;30.95;;;22.40;;
66593;SDS011;53450;42.584;23.366;2023-07-31T03:39:54;26.90;;;22.30;;
66593;SDS011;53450;42.584;23.366;2023-07-31T03:42:20;25.95;;;22.38;;
66593;SDS011;53450;42.584;23.366;2023-07-31T03:44:45;29.42;;;21.80;;
66593;SDS011;53450;42.584;23.366;2023-07-31T03:47:11;31.80;;;22.42;;
66593;SDS011;53450;42.584;23.366;2023-07-31T03:49:36;35.00;;;23.35;;
66593;SDS011;53450;42.584;23.366;2023-07-31T03:52:02;28.70;;;23.00;;
66593;SDS011;53450;42.584;23.366;2023-07-31T03:54:28;27.88;;;21.23;;
66593;SDS011;53450;42.584;23.366;2023-07-31T03:56:53;32.58;;;24.58;;
66593;SDS011;53450;42.584;23.366;2023-07-31T03:59:19;32.45;;;21.70;;
66593;SDS011;53450;42.584;23.366;2023-07-31T04:01:44;31.45;;;21.92;;
66593;SDS011;53450;42.584;23.366;2023-07-31T04:04:10;32.45;;;23.33;;
66593;SDS011;53450;42.584;23.366;2023-07-31T04:06:35;29.00;;;22.20;;
66593;SDS011;53450;42.584;23.366;2023-07-31T04:09:02;30.75;;;22.15;;
66593;SDS011;53450;42.584;23.366;2023-07-31T04:11:53;34.88;;;24.40;;
66593;SDS011;53450;42.584;23.366;2023-07-31T04:14:43;28.77;;;23.42;;
66593;SDS011;53450;42.584;23.366;2023-07-31T04:17:08;34.13;;;23.42;;
66593;SDS011;53450;42.584;23.366;2023-07-31T04:19:34;28.50;;;20.80;;
66593;SDS011;53450;42.584;23.366;2023-07-31T04:22:00;39.42;;;22.15;;
66593;SDS011;53450;42.584;23.366;2023-07-31T04:24:25;31.55;;;22.73;;
66593;SDS011;53450;42.584;23.366;2023-07-31T04:26:51;30.05;;;21.35;;
66593;SDS011;53450;42.584;23.366;2023-07-31T04:29:17;26.27;;;20.20;;
66593;SDS011;53450;42.584;23.366;2023-07-31T04:31:43;31.08;;;21.80;;
66593;SDS011;53450;42.584;23.366;2023-07-31T04:34:08;26.67;;;20.85;;
66593;SDS011;53450;42.584;23.366;2023-07-31T04:36:34;27.67;;;19.52;;
66593;SDS011;53450;42.584;23.366;2023-07-31T04:39:00;23.45;;;19.10;;
66593;SDS011;53450;42.584;23.366;2023-07-31T04:41:26;24.05;;;19.10;;
66593;SDS011;53450;42.584;23.366;2023-07-31T04:43:52;28.52;;;19.98;;
66593;SDS011;53450;42.584;23.366;2023-07-31T04:46:17;28.75;;;19.48;;
66593;SDS011;53450;42.584;23.366;2023-07-31T04:48:43;22.13;;;17.67;;
66593;SDS011;53450;42.584;23.366;2023-07-31T04:51:09;21.88;;;17.30;;
66593;SDS011;53450;42.584;23.366;2023-07-31T04:53:34;15.00;;;12.60;;
66593;SDS011;53450;42.584;23.366;2023-07-31T04:56:00;14.40;;;12.68;;
66593;SDS011;53450;42.584;23.366;2023-07-31T04:58:26;16.35;;;14.25;;
66593;SDS011;53450;42.584;23.366;2023-07-31T05:00:52;15.52;;;13.23;;
66593;SDS011;53450;42.584;23.366;2023-07-31T05:03:17;16.17;;;13.10;;
66593;SDS011;53450;42.584;23.366;2023-07-31T05:05:43;13.05;;;11.20;;
66593;SDS011;53450;42.584;23.366;2023-07-31T05:08:08;12.18;;;10.43;;
66593;SDS011;53450;42.584;23.366;2023-07-31T05:10:34;13.57;;;11.40;;
66593;SDS011;53450;42.584;23.366;2023-07-31T05:13:00;10.13;;;9.13;;
66593;SDS011;53450;42.584;23.366;2023-07-31T05:15:25;10.85;;;8.73;;
66593;SDS011;53450;42.584;23.366;2023-07-31T05:17:51;10.77;;;9.57;;
66593;SDS011;53450;42.584;23.366;2023-07-31T05:20:42;15.55;;;10.25;;
66593;SDS011;53450;42.584;23.366;2023-07-31T05:23:32;11.88;;;10.57;;
66593;SDS011;53450;42.584;23.366;2023-07-31T05:26:04;12.77;;;11.23;;
66593;SDS011;53450;42.584;23.366;2023-07-31T05:28:30;14.10;;;11.25;;
66593;SDS011;53450;42.584;23.366;2023-07-31T05:30:59;10.55;;;9.15;;
66593;SDS011;53450;42.584;23.366;2023-07-31T05:33:51;10.48;;;9.48;;
66593;SDS011;53450;42.584;23.366;2023-07-31T05:36:17;10.30;;;9.20;;
66593;SDS011;53450;42.584;23.366;2023-07-31T05:38:43;11.73;;;7.20;;
66593;SDS011;53450;42.584;23.366;2023-07-31T05:41:14;9.18;;;7.75;;
66593;SDS011;53450;42.584;23.366;2023-07-31T05:43:40;9.52;;;8.15;;
66593;SDS011;53450;42.584;23.366;2023-07-31T05:46:06;10.48;;;8.82;;
66593;SDS011;53450;42.584;23.366;2023-07-31T05:48:32;8.02;;;7.25;;
66593;SDS011;53450;42.584;23.366;2023-07-31T05:50:59;8.95;;;8.05;;
66593;SDS011;53450;42.584;23.366;2023-07-31T05:53:25;8.52;;;7.22;;
66593;SDS011;53450;42.584;23.366;2023-07-31T05:55:51;11.55;;;9.57;;
66593;SDS011;53450;42.584;23.366;2023-07-31T05:58:16;7.65;;;6.93;;
66593;SDS011;53450;42.584;23.366;2023-07-31T06:00:42;7.10;;;5.28;;
66593;SDS011;53450;42.584;23.366;2023-07-31T06:03:07;7.28;;;6.63;;
66593;SDS011;53450;42.584;23.366;2023-07-31T06:05:33;6.70;;;6.10;;
66593;SDS011;53450;42.584;23.366;2023-07-31T06:07:58;7.53;;;5.75;;
66593;SDS011;53450;42.584;23.366;2023-07-31T06:10:24;6.82;;;6.22;;
66593;SDS011;53450;42.584;23.366;2023-07-31T06:12:50;6.53;;;5.78;;
66593;SDS011;53450;42.584;23.366;2023-07-31T06:15:15;6.22;;;5.63;;
66593;SDS011;53450;42.584;23.366;2023-07-31T06:17:43;5.88;;;5.28;;
66593;SDS011;53450;42.584;23.366;2023-07-31T06:20:08;9.05;;;5.68;;
66593;SDS011;53450;42.584;23.366;2023-07-31T06:22:35;8.02;;;7.13;;
66593;SDS011;53450;42.584;23.366;2023-07-31T06:25:00;9.05;;;6.55;;
66593;SDS011;53450;42.584;23.366;2023-07-31T06:27:26;6.15;;;5.25;;
66593;SDS011;53450;42.584;23.366;2023-07-31T06:29:51;5.13;;;4.72;;
66593;SDS011;53450;42.584;23.366;2023-07-31T06:32:21;6.30;;;5.18;;
66593;SDS011;53450;42.584;23.366;2023-07-31T06:34:47;6.70;;;4.82;;
66593;SDS011;53450;42.584;23.366;2023-07-31T06:37:12;4.88;;;4.32;;
66593;SDS011;53450;42.584;23.366;2023-07-31T06:39:38;4.88;;;4.47;;
66593;SDS011;53450;42.584;23.366;2023-07-31T06:42:04;5.88;;;4.85;;
66593;SDS011;53450;42.584;23.366;2023-07-31T06:44:29;3.92;;;3.45;;
66593;SDS011;53450;42.584;23.366;2023-07-31T06:46:55;4.10;;;3.70;;
66593;SDS011;53450;42.584;23.366;2023-07-31T06:49:21;4.07;;;3.67;;
66593;SDS011;53450;42.584;23.366;2023-07-31T06:51:46;3.60;;;3.30;;
66593;SDS011;53450;42.584;23.366;2023-07-31T06:54:12;4.80;;;3.40;;
66593;SDS011;53450;42.584;23.366;2023-07-31T06:56:37;5.47;;;4.18;;
66593;SDS011;53450;42.584;23.366;2023-07-31T06:59:03;3.60;;;3.30;;
66593;SDS011;53450;42.584;23.366;2023-07-31T07:01:28;8.32;;;3.70;;
66593;SDS011;53450;42.584;23.366;2023-07-31T07:03:54;6.78;;;3.33;;
66593;SDS011;53450;42.584;23.366;2023-07-31T07:06:21;4.18;;;3.53;;
66593;SDS011;53450;42.584;23.366;2023-07-31T07:08:47;3.97;;;3.60;;
66593;SDS011;53450;42.584;23.366;2023-07-31T07:11:13;3.78;;;3.38;;
66593;SDS011;53450;42.584;23.366;2023-07-31T07:13:39;6.53;;;3.15;;
66593;SDS011;53450;42.584;23.366;2023-07-31T07:16:04;4.13;;;3.53;;
66593;SDS011;53450;42.584;23.366;2023-07-31T07:18:30;6.18;;;3.47;;
66593;SDS011;53450;42.584;23.366;2023-07-31T07:20:56;4.07;;;3.10;;
66593;SDS011;53450;42.584;23.366;2023-07-31T07:23:23;3.85;;;3.25;;
66593;SDS011;53450;42.584;23.366;2023-07-31T07:25:49;3.20;;;2.90;;
66593;SDS011;53450;42.584;23.366;2023-07-31T07:28:14;10.55;;;3.30;;
66593;SDS011;53450;42.584;23.366;2023-07-31T07:30:40;2.95;;;2.75;;
66593;SDS011;53450;42.584;23.366;2023-07-31T07:33:06;3.05;;;2.75;;
66593;SDS011;53450;42.584;23.366;2023-07-31T07:35:35;4.70;;;3.22;;
66593;SDS011;53450;42.584;23.366;2023-07-31T07:38:02;6.50;;;3.05;;
66593;SDS011;53450;42.584;23.366;2023-07-31T07:40:28;3.25;;;3.00;;
66593;SDS011;53450;42.584;23.366;2023-07-31T07:42:54;4.13;;;2.72;;
66593;SDS011;53450;42.584;23.366;2023-07-31T07:45:19;2.75;;;2.55;;
66593;SDS011;53450;42.584;23.366;2023-07-31T07:47:45;2.70;;;2.50;;
66593;SDS011;53450;42.584;23.366;2023-07-31T07:50:10;3.20;;;2.88;;
66593;SDS011;53450;42.584;23.366;2023-07-31T07:52:36;2.65;;;2.05;;
66593;SDS011;53450;42.584;23.366;2023-07-31T07:55:02;3.78;;;2.42;;
66593;SDS011;53450;42.584;23.366;2023-07-31T07:57:29;3.22;;;2.92;;
66593;SDS011;53450;42.584;23.366;2023-07-31T07:59:54;2.28;;;2.17;;
66593;SDS011;53450;42.584;23.366;2023-07-31T08:02:20;2.55;;;2.35;;
66593;SDS011;53450;42.584;23.366;2023-07-31T08:04:45;3.60;;;2.58;;
66593;SDS011;53450;42.584;23.366;2023-07-31T08:07:11;2.85;;;2.65;;
66593;SDS011;53450;42.584;23.366;2023-07-31T08:09:37;2.88;;;2.55;;
66593;SDS011;53450;42.584;23.366;2023-07-31T08:12:03;2.55;;;2.35;;
66593;SDS011;53450;42.584;23.366;2023-07-31T08:14:32;7.47;;;2.63;;
66593;SDS011;53450;42.584;23.366;2023-07-31T08:16:58;3.53;;;2.50;;
66593;SDS011;53450;42.584;23.366;2023-07-31T08:19:24;3.72;;;2.58;;
66593;SDS011;53450;42.584;23.366;2023-07-31T08:21:50;3.63;;;2.50;;
66593;SDS011;53450;42.584;23.366;2023-07-31T08:24:15;3.65;;;2.70;;
66593;SDS011;53450;42.584;23.366;2023-07-31T08:26:41;4.07;;;2.70;;
66593;SDS011;53450;42.584;23.366;2023-07-31T08:29:07;2.60;;;2.42;;
66593;SDS011;53450;42.584;23.366;2023-07-31T08:31:33;3.72;;;2.58;;
66593;SDS011;53450;42.584;23.366;2023-07-31T08:34:00;2.78;;;2.30;;
66593;SDS011;53450;42.584;23.366;2023-07-31T08:36:26;2.83;;;2.63;;
66593;SDS011;53450;42.584;23.366;2023-07-31T08:38:52;2.65;;;2.35;;
66593;SDS011;53450;42.584;23.366;2023-07-31T08:41:17;3.15;;;2.40;;
66593;SDS011;53450;42.584;23.366;2023-07-31T08:43:43;2.50;;;2.33;;
66593;SDS011;53450;42.584;23.366;2023-07-31T08:46:39;2.30;;;2.10;;
66593;SDS011;53450;42.584;23.366;2023-07-31T08:49:31;2.17;;;2.03;;
66593;SDS011;53450;42.584;23.366;2023-07-31T08:51:57;5.65;;;2.50;;
66593;SDS011;53450;42.584;23.366;2023-07-31T08:54:23;3.60;;;2.30;;
66593;SDS011;53450;42.584;23.366;2023-07-31T08:56:49;2.95;;;2.17;;
66593;SDS011;53450;42.584;23.366;2023-07-31T08:59:15;2.90;;;2.10;;
66593;SDS011;53450;42.584;23.366;2023-07-31T09:02:08;3.67;;;2.25;;
66593;SDS011;53450;42.584;23.366;2023-07-31T09:04:59;3.85;;;2.42;;
66593;SDS011;53450;42.584;23.366;2023-07-31T09:07:25;2.30;;;2.20;;
66593;SDS011;53450;42.584;23.366;2023-07-31T09:09:50;6.55;;;2.53;;
66593;SDS011;53450;42.584;23.366;2023-07-31T09:12:16;3.03;;;2.75;;
66593;SDS011;53450;42.584;23.366;2023-07-31T09:14:42;2.67;;;2.47;;
66593;SDS011;53450;42.584;23.366;2023-07-31T09:17:10;3.08;;;2.65;;
66593;SDS011;53450;42.584;23.366;2023-07-31T09:19:36;6.15;;;2.90;;
66593;SDS011;53450;42.584;23.366;2023-07-31T09:22:05;2.63;;;2.42;;
66593;SDS011;53450;42.584;23.366;2023-07-31T09:24:32;2.50;;;2.30;;
66593;SDS011;53450;42.584;23.366;2023-07-31T09:26:59;5.00;;;2.20;;
66593;SDS011;53450;42.584;23.366;2023-07-31T09:29:26;2.30;;;2.15;;
66593;SDS011;53450;42.584;23.366;2023-07-31T09:31:53;10.07;;;2.60;;
66593;SDS011;53450;42.584;23.366;2023-07-31T09:34:20;3.25;;;2.25;;
66593;SDS011;53450;42.584;23.366;2023-07-31T09:36:53;2.15;;;2.05;;
66593;SDS011;53450;42.584;23.366;2023-07-31T09:39:18;2.38;;;2.17;;
66593;SDS011;53450;42.584;23.366;2023-07-31T09:41:47;2.20;;;2.10;;
66593;SDS011;53450;42.584;23.366;2023-07-31T09:44:43;2.20;;;2.00;;
66593;SDS011;53450;42.584;23.366;2023-07-31T09:47:36;7.13;;;2.45;;
66593;SDS011;53450;42.584;23.366;2023-07-31T09:50:04;2.60;;;2.40;;
66593;SDS011;53450;42.584;23.366;2023-07-31T09:52:32;2.75;;;2.30;;
66593;SDS011;53450;42.584;23.366;2023-07-31T09:54:58;2.60;;;2.40;;
66593;SDS011;53450;42.584;23.366;2023-07-31T09:57:23;4.10;;;2.15;;
66593;SDS011;53450;42.584;23.366;2023-07-31T09:59:50;2.55;;;2.35;;
66593;SDS011;53450;42.584;23.366;2023-07-31T10:02:20;3.42;;;2.40;;
66593;SDS011;53450;42.584;23.366;2023-07-31T10:04:48;4.30;;;2.58;;
66593;SDS011;53450;42.584;23.366;2023-07-31T10:07:16;3.33;;;2.55;;
66593;SDS011;53450;42.584;23.366;2023-07-31T10:09:43;4.57;;;2.70;;
66593;SDS011;53450;42.584;23.366;2023-07-31T10:12:11;2.90;;;2.70;;
66593;SDS011;53450;42.584;23.366;2023-07-31T10:14:39;8.88;;;2.85;;
66593;SDS011;53450;42.584;23.366;2023-07-31T10:17:32;2.40;;;2.20;;
66593;SDS011;53450;42.584;23.366;2023-07-31T10:20:25;4.78;;;2.05;;
66593;SDS011;53450;42.584;23.366;2023-07-31T10:22:52;3.88;;;2.30;;
66593;SDS011;53450;42.584;23.366;2023-07-31T10:25:20;7.20;;;2.63;;
66593;SDS011;53450;42.584;23.366;2023-07-31T10:27:47;3.42;;;2.10;;
66593;SDS011;53450;42.584;23.366;2023-07-31T10:30:17;13.93;;;2.33;;
66593;SDS011;53450;42.584;23.366;2023-07-31T10:32:45;2.38;;;2.10;;
66593;SDS011;53450;42.584;23.366;2023-07-31T10:35:13;4.60;;;2.00;;
66593;SDS011;53450;42.584;23.366;2023-07-31T10:37:41;4.32;;;2.63;;
66593;SDS011;53450;42.584;23.366;2023-07-31T10:43:02;5.68;;;2.10;;
66593;SDS011;53450;42.584;23.366;2023-07-31T10:45:32;2.72;;;1.88;;
66593;SDS011;53450;42.584;23.366;2023-07-31T10:48:01;2.40;;;2.20;;
66593;SDS011;53450;42.584;23.366;2023-07-31T10:50:32;3.85;;;2.28;;
66593;SDS011;53450;42.584;23.366;2023-07-31T10:53:01;4.43;;;2.00;;
66593;SDS011;53450;42.584;23.366;2023-07-31T10:58:05;3.95;;;2.10;;
66593;SDS011;53450;42.584;23.366;2023-07-31T11:00:32;2.50;;;2.30;;
66593;SDS011;53450;42.584;23.366;2023-07-31T11:03:02;6.05;;;2.40;;
66593;SDS011;53450;42.584;23.366;2023-07-31T11:15:54;2.08;;;1.90;;
66593;SDS011;53450;42.584;23.366;2023-07-31T11:18:20;5.05;;;2.20;;
66593;SDS011;53450;42.584;23.366;2023-07-31T11:20:46;2.28;;;2.08;;
66593;SDS011;53450;42.584;23.366;2023-07-31T11:23:12;1.95;;;1.67;;
66593;SDS011;53450;42.584;23.366;2023-07-31T11:25:38;4.88;;;2.08;;
66593;SDS011;53450;42.584;23.366;2023-07-31T11:28:08;2.00;;;1.90;;
66593;SDS011;53450;42.584;23.366;2023-07-31T11:30:35;3.42;;;1.80;;
66593;SDS011;53450;42.584;23.366;2023-07-31T11:33:02;1.90;;;1.80;;
66593;SDS011;53450;42.584;23.366;2023-07-31T11:35:29;2.33;;;1.77;;
66593;SDS011;53450;42.584;23.366;2023-07-31T11:37:58;2.05;;;1.95;;
66593;SDS011;53450;42.584;23.366;2023-07-31T11:40:24;1.67;;;1.58;;
66593;SDS011;53450;42.584;23.366;2023-07-31T11:43:03;1.98;;;1.50;;
66593;SDS011;53450;42.584;23.366;2023-07-31T11:45:29;1.88;;;1.77;;
66593;SDS011;53450;42.584;23.366;2023-07-31T11:47:55;1.48;;;1.48;;
66593;SDS011;53450;42.584;23.366;2023-07-31T11:50:22;1.70;;;1.50;;
66593;SDS011;53450;42.584;23.366;2023-07-31T11:52:57;2.35;;;1.85;;
66593;SDS011;53450;42.584;23.366;2023-07-31T11:55:50;1.95;;;1.45;;
66593;SDS011;53450;42.584;23.366;2023-07-31T11:58:48;2.63;;;1.80;;
66593;SDS011;53450;42.584;23.366;2023-07-31T12:01:16;2.15;;;1.90;;
66593;SDS011;53450;42.584;23.366;2023-07-31T12:03:44;2.90;;;1.83;;
66593;SDS011;53450;42.584;23.366;2023-07-31T12:06:11;10.10;;;2.20;;
66593;SDS011;53450;42.584;23.366;2023-07-31T12:08:37;4.55;;;2.20;;
66593;SDS011;53450;42.584;23.366;2023-07-31T12:11:06;3.10;;;2.80;;
66593;SDS011;53450;42.584;23.366;2023-07-31T12:13:35;3.30;;;3.00;;
66593;SDS011;53450;42.584;23.366;2023-07-31T12:16:01;3.17;;;2.42;;
66593;SDS011;53450;42.584;23.366;2023-07-31T12:18:29;5.70;;;2.30;;
66593;SDS011;53450;42.584;23.366;2023-07-31T12:21:00;2.30;;;2.15;;
66593;SDS011;53450;42.584;23.366;2023-07-31T12:23:33;2.40;;;2.20;;
66593;SDS011;53450;42.584;23.366;2023-07-31T12:26:04;3.30;;;2.38;;
66593;SDS011;53450;42.584;23.366;2023-07-31T12:28:38;6.53;;;2.70;;
66593;SDS011;53450;42.584;23.366;2023-07-31T12:31:11;2.75;;;2.38;;
66593;SDS011;53450;42.584;23.366;2023-07-31T12:33:38;3.70;;;2.30;;
66593;SDS011;53450;42.584;23.366;2023-07-31T12:36:09;3.13;;;2.83;;
66593;SDS011;53450;42.584;23.366;2023-07-31T12:38:37;9.75;;;2.88;;
66593;SDS011;53450;42.584;23.366;2023-07-31T12:41:12;3.13;;;2.83;;
66593;SDS011;53450;42.584;23.366;2023-07-31T12:43:39;31.10;;;4.75;;
66593;SDS011;53450;42.584;23.366;2023-07-31T12:46:05;30.45;;;4.20;;
66593;SDS011;53450;42.584;23.366;2023-07-31T12:48:33;3.28;;;3.00;;
66593;SDS011;53450;42.584;23.366;2023-07-31T12:50:59;5.15;;;3.33;;
66593;SDS011;53450;42.584;23.366;2023-07-31T12:53:25;4.00;;;3.60;;
66593;SDS011;53450;42.584;23.366;2023-07-31T12:55:50;6.47;;;4.25;;
66593;SDS011;53450;42.584;23.366;2023-07-31T12:58:16;4.70;;;4.32;;
66593;SDS011;53450;42.584;23.366;2023-07-31T13:00:47;6.47;;;4.22;;
66593;SDS011;53450;42.584;23.366;2023-07-31T13:03:38;4.97;;;4.30;;
66593;SDS011;53450;42.584;23.366;2023-07-31T13:06:10;4.78;;;4.10;;
66593;SDS011;53450;42.584;23.366;2023-07-31T13:08:36;4.28;;;3.97;;
66593;SDS011;53450;42.584;23.366;2023-07-31T13:11:01;6.03;;;4.07;;
66593;SDS011;53450;42.584;23.366;2023-07-31T13:13:27;6.25;;;4.40;;
66593;SDS011;53450;42.584;23.366;2023-07-31T13:16:17;3.90;;;3.60;;
66593;SDS011;53450;42.584;23.366;2023-07-31T13:21:34;8.70;;;4.80;;
66593;SDS011;53450;42.584;23.366;2023-07-31T13:24:02;6.00;;;5.40;;
66593;SDS011;53450;42.584;23.366;2023-07-31T13:26:29;4.60;;;4.20;;
66593;SDS011;53450;42.584;23.366;2023-07-31T13:28:54;5.25;;;4.60;;
66593;SDS011;53450;42.584;23.366;2023-07-31T13:31:20;6.00;;;4.18;;
66593;SDS011;53450;42.584;23.366;2023-07-31T13:33:45;4.70;;;4.40;;
66593;SDS011;53450;42.584;23.366;2023-07-31T13:36:11;5.20;;;4.75;;
66593;SDS011;53450;42.584;23.366;2023-07-31T13:38:39;5.20;;;4.55;;
66593;SDS011;53450;42.584;23.366;2023-07-31T13:41:04;4.80;;;4.30;;
66593;SDS011;53450;42.584;23.366;2023-07-31T13:43:30;4.35;;;4.05;;
66593;SDS011;53450;42.584;23.366;2023-07-31T13:45:56;5.25;;;4.70;;
66593;SDS011;53450;42.584;23.366;2023-07-31T13:48:22;4.72;;;4.32;;
66593;SDS011;53450;42.584;23.366;2023-07-31T13:50:47;56.70;;;5.90;;
66593;SDS011;53450;42.584;23.366;2023-07-31T13:53:13;4.47;;;4.05;;
66593;SDS011;53450;42.584;23.366;2023-07-31T13:55:38;6.85;;;4.10;;
66593;SDS011;53450;42.584;23.366;2023-07-31T13:58:04;9.30;;;3.88;;
66593;SDS011;53450;42.584;23.366;2023-07-31T14:00:54;3.72;;;3.40;;
66593;SDS011;53450;42.584;23.366;2023-07-31T14:03:45;4.05;;;3.75;;
66593;SDS011;53450;42.584;23.366;2023-07-31T14:06:11;3.65;;;3.30;;
66593;SDS011;53450;42.584;23.366;2023-07-31T14:08:36;5.50;;;3.33;;
66593;SDS011;53450;42.584;23.366;2023-07-31T14:11:02;3.70;;;3.40;;
66593;SDS011;53450;42.584;23.366;2023-07-31T14:13:28;3.58;;;3.28;;
66593;SDS011;53450;42.584;23.366;2023-07-31T14:15:53;4.75;;;3.85;;
66593;SDS011;53450;42.584;23.366;2023-07-31T14:18:19;4.15;;;3.13;;
66593;SDS011;53450;42.584;23.366;2023-07-31T14:20:48;3.13;;;2.92;;
66593;SDS011;53450;42.584;23.366;2023-07-31T14:23:13;3.22;;;2.92;;
66593;SDS011;53450;42.584;23.366;2023-07-31T14:25:40;4.35;;;3.00;;
66593;SDS011;53450;42.584;23.366;2023-07-31T14:28:06;4.47;;;3.08;;
66593;SDS011;53450;42.584;23.366;2023-07-31T14:30:31;3.05;;;2.85;;
66593;SDS011;53450;42.584;23.366;2023-07-31T14:32:57;4.78;;;3.50;;
66593;SDS011;53450;42.584;23.366;2023-07-31T14:35:24;4.28;;;3.15;;
66593;SDS011;53450;42.584;23.366;2023-07-31T14:37:49;6.50;;;3.05;;
66593;SDS011;53450;42.584;23.366;2023-07-31T14:40:15;3.40;;;3.00;;
66593;SDS011;53450;42.584;23.366;2023-07-31T14:42:40;7.43;;;3.35;;
66593;SDS011;53450;42.584;23.366;2023-07-31T14:45:06;3.85;;;3.45;;
66593;SDS011;53450;42.584;23.366;2023-07-31T14:47:32;8.55;;;3.38;;
66593;SDS011;53450;42.584;23.366;2023-07-31T14:49:59;3.33;;;3.03;;
66593;SDS011;53450;42.584;23.366;2023-07-31T14:52:25;105.55;;;8.45;;
66593;SDS011;53450;42.584;23.366;2023-07-31T14:54:51;3.50;;;2.88;;
66593;SDS011;53450;42.584;23.366;2023-07-31T14:57:17;3.35;;;3.10;;
66593;SDS011;53450;42.584;23.366;2023-07-31T15:03:01;5.25;;;2.88;;